Fellowship, Louisiana
Current Conditions -  °F | °C
As of 12:53 PM on Sunday 21 Dec 2014 (Local Time) from KESF Reporting Station
Few Clouds Few Clouds  
Wind Chill: 55°   Ceiling: Unl
Heat Index: 55°   Visibility: 10mi
Dew Point: 47°   Wind: 5mph
Humidity: 74%   Direction: 140°SE
Pressure: 30.04"   Gusts: NA
Location:  31.6376°N, 92.2485°W
Report Text: KESF 211853Z AUTO 14004KT 10SM FEW014 13/08 A3004 RMK AO2 SLP173 T01280083
Loading
Personal Weather Stations






























Interactive Weather Map New forecast layout! Learn more

10-Day Weather Forecast

Advertisements
Track Severe Weather on mobile